createdAt,value
2022-12-23T00:55:34.484Z,680.00
2022-12-23T00:56:35.455Z,679.00
2022-12-23T00:57:35.446Z,680.00
2022-12-23T00:58:35.434Z,680.00
2022-12-23T00:59:35.417Z,680.00
2022-12-23T01:00:35.398Z,682.00
2022-12-23T01:01:35.492Z,683.00
2022-12-23T01:02:35.535Z,685.00
2022-12-23T01:03:35.469Z,687.00
2022-12-23T01:04:35.380Z,687.00
2022-12-23T01:05:35.352Z,688.00
2022-12-23T01:06:35.347Z,687.00
2022-12-23T01:07:35.355Z,687.00
2022-12-23T01:08:35.315Z,683.00
2022-12-23T01:09:35.317Z,683.00
2022-12-23T01:10:35.301Z,683.00
2022-12-23T01:11:35.315Z,682.00
2022-12-23T01:12:35.280Z,679.00
2022-12-23T01:13:35.272Z,678.00
2022-12-23T01:14:35.253Z,677.00
2022-12-23T01:15:35.248Z,677.00
2022-12-23T01:16:35.311Z,676.00
2022-12-23T01:17:35.254Z,675.00
2022-12-23T01:18:35.216Z,676.00
2022-12-23T01:19:35.210Z,675.00
2022-12-23T01:20:35.209Z,674.00
2022-12-23T01:21:35.188Z,673.00
2022-12-23T01:22:35.187Z,673.00
2022-12-23T01:23:35.170Z,670.00
2022-12-23T01:24:35.161Z,670.00
2022-12-23T01:25:35.148Z,670.00
2022-12-23T01:26:35.138Z,671.00
2022-12-23T01:27:35.146Z,670.00
2022-12-23T01:28:35.117Z,668.00
2022-12-23T01:29:35.091Z,667.00
2022-12-23T01:30:35.098Z,666.00
2022-12-23T01:31:35.099Z,668.00
2022-12-23T01:32:35.064Z,669.00
2022-12-23T01:33:35.048Z,669.00
2022-12-23T01:34:37.494Z,671.00
2022-12-23T01:35:35.020Z,669.00
2022-12-23T01:36:35.014Z,668.00
2022-12-23T01:37:35.057Z,672.00
2022-12-23T01:38:35.015Z,672.00
2022-12-23T01:39:34.989Z,670.00
2022-12-23T01:40:34.981Z,670.00
2022-12-23T01:41:34.974Z,670.00
2022-12-23T01:42:34.982Z,667.00
2022-12-23T01:43:34.999Z,669.00
2022-12-23T01:44:34.966Z,672.00
2022-12-23T01:45:35.017Z,671.00
2022-12-23T01:46:34.950Z,670.00
2022-12-23T01:47:34.963Z,671.00
2022-12-23T01:48:34.973Z,670.00
2022-12-23T01:49:34.932Z,668.00
2022-12-23T01:50:34.927Z,667.00
2022-12-23T01:51:34.923Z,666.00
2022-12-23T01:52:34.918Z,667.00
2022-12-23T01:53:34.902Z,667.00
2022-12-23T01:54:34.883Z,667.00
2022-12-23T01:55:34.874Z,670.00
2022-12-23T01:56:34.862Z,672.00
2022-12-23T01:57:34.852Z,671.00
2022-12-23T01:58:34.849Z,670.00
2022-12-23T01:59:34.866Z,669.00
2022-12-23T02:01:34.922Z,665.00
2022-12-23T02:02:34.944Z,664.00
2022-12-23T02:03:34.913Z,664.00
2022-12-23T02:04:34.778Z,662.00
2022-12-23T02:05:34.784Z,664.00
2022-12-23T02:06:34.742Z,664.00
2022-12-23T02:07:34.737Z,665.00
2022-12-23T02:08:34.734Z,667.00
2022-12-23T02:09:34.714Z,668.00
2022-12-23T02:10:34.711Z,667.00
2022-12-23T02:11:34.688Z,667.00
2022-12-23T02:12:34.681Z,666.00
2022-12-23T02:13:34.674Z,665.00
2022-12-23T02:14:34.651Z,663.00
2022-12-23T02:15:34.693Z,662.00
2022-12-23T02:16:34.702Z,660.00
2022-12-23T02:17:34.612Z,659.00
2022-12-23T02:18:34.604Z,659.00
2022-12-23T02:19:34.586Z,659.00
2022-12-23T02:20:34.580Z,659.00
2022-12-23T02:21:34.563Z,657.00
2022-12-23T02:22:34.557Z,657.00
2022-12-23T02:23:34.533Z,657.00
2022-12-23T02:24:34.588Z,658.00
2022-12-23T02:25:34.506Z,656.00
2022-12-23T02:26:34.502Z,655.00
2022-12-23T02:27:34.477Z,651.00
2022-12-23T02:28:34.464Z,651.00
2022-12-23T02:29:34.451Z,650.00
2022-12-23T02:30:34.495Z,647.00
2022-12-23T03:25:33.758Z,627.00
2022-12-23T03:26:33.747Z,626.00
2022-12-23T03:27:33.735Z,626.00
2022-12-23T03:28:33.718Z,624.00
2022-12-23T03:29:33.709Z,624.00
2022-12-23T03:30:33.697Z,623.00
2022-12-23T03:31:33.729Z,622.00
2022-12-23T03:32:33.703Z,620.00
2022-12-23T03:33:33.675Z,619.00
2022-12-23T03:34:33.658Z,619.00
2022-12-23T03:35:33.656Z,618.00
2022-12-23T03:36:33.626Z,617.00
2022-12-23T03:37:33.604Z,620.00
2022-12-23T03:38:33.589Z,620.00
2022-12-23T03:39:33.578Z,620.00
2022-12-23T03:40:33.580Z,622.00
2022-12-23T03:41:33.551Z,620.00
2022-12-23T03:42:33.547Z,621.00
2022-12-23T03:43:33.524Z,619.00
2022-12-23T03:44:33.520Z,617.00
2022-12-23T12:54:26.774Z,511.00
2022-12-23T12:55:26.761Z,512.00
2022-12-23T12:56:26.719Z,510.00
2022-12-23T12:57:26.703Z,513.00
2022-12-23T12:58:26.690Z,512.00
2022-12-23T12:59:26.681Z,513.00
2022-12-23T13:00:26.663Z,512.00
2022-12-23T13:01:26.768Z,511.00
2022-12-23T13:02:26.749Z,512.00
2022-12-23T13:03:26.624Z,510.00
2022-12-23T13:04:26.604Z,511.00
2022-12-23T13:05:26.598Z,511.00
2022-12-23T13:07:26.556Z,514.00
2022-12-23T13:08:26.542Z,513.00
2022-12-23T13:09:26.533Z,510.00
2022-12-23T13:10:26.498Z,511.00
2022-12-23T13:11:28.556Z,511.00
2022-12-23T13:12:26.461Z,512.00
2022-12-23T13:13:26.443Z,510.00
2022-12-23T13:14:26.427Z,510.00
2022-12-23T13:15:26.427Z,509.00
2022-12-23T13:16:26.432Z,508.00
2022-12-23T13:17:26.396Z,512.00
2022-12-23T13:18:26.381Z,515.00
2022-12-23T13:19:26.365Z,518.00
2022-12-23T13:20:26.351Z,516.00
2022-12-23T13:21:26.332Z,514.00
2022-12-23T13:22:26.315Z,512.00
2022-12-23T13:23:44.020Z,511.00
2022-12-23T13:24:26.315Z,512.00
2022-12-23T13:25:26.287Z,511.00
2022-12-23T13:26:26.269Z,509.00
2022-12-23T13:27:26.293Z,508.00
2022-12-23T13:28:26.267Z,505.00
2022-12-23T13:29:26.230Z,503.00
2022-12-23T13:30:26.225Z,505.00
2022-12-23T13:31:26.257Z,504.00
2022-12-23T13:32:26.185Z,504.00
2022-12-23T13:33:26.186Z,504.00
2022-12-23T13:34:26.148Z,505.00
2022-12-23T13:35:26.131Z,506.00
2022-12-23T13:36:26.157Z,507.00
2022-12-23T13:37:26.108Z,506.00
2022-12-23T13:38:26.097Z,504.00
2022-12-23T13:39:26.074Z,501.00
2022-12-23T13:40:26.059Z,501.00
2022-12-23T13:41:26.041Z,499.00
2022-12-23T13:42:26.029Z,500.00
2022-12-23T13:43:26.076Z,501.00
2022-12-23T13:44:26.011Z,499.00
2022-12-23T13:45:25.985Z,502.00
2022-12-23T13:46:26.063Z,501.00
2022-12-23T13:47:25.953Z,502.00
2022-12-23T13:48:25.933Z,500.00
2022-12-23T13:49:25.924Z,500.00
2022-12-23T13:50:25.905Z,502.00
2022-12-23T13:51:25.905Z,501.00
2022-12-23T13:52:25.883Z,503.00
2022-12-23T13:53:25.901Z,503.00
2022-12-23T13:54:25.858Z,504.00
2022-12-23T13:55:25.839Z,504.00
2022-12-23T13:56:25.823Z,501.00
2022-12-23T13:57:25.813Z,500.00
2022-12-23T13:58:25.828Z,501.00
2022-12-23T13:59:25.813Z,502.00
2022-12-23T14:00:25.769Z,503.00
2022-12-23T14:01:25.793Z,504.00
2022-12-23T14:02:25.758Z,505.00
2022-12-23T14:03:25.715Z,503.00
2022-12-23T14:04:25.701Z,501.00
2022-12-23T14:05:25.694Z,501.00
2022-12-23T14:06:25.672Z,501.00
2022-12-23T14:07:25.654Z,502.00
2022-12-23T14:08:25.638Z,503.00
2022-12-23T14:09:25.617Z,501.00
2022-12-23T14:31:25.456Z,507.00
2022-12-23T14:32:25.283Z,506.00
2022-12-23T14:33:25.302Z,506.00
2022-12-23T14:34:25.251Z,507.00
2022-12-23T14:35:25.245Z,505.00
2022-12-23T14:36:25.297Z,503.00
2022-12-23T14:37:25.214Z,501.00
2022-12-23T14:38:25.886Z,500.00
2022-12-23T14:39:25.177Z,502.00
2022-12-23T14:40:25.191Z,501.00
2022-12-23T14:41:25.143Z,501.00
2022-12-23T14:42:25.126Z,501.00
2022-12-23T14:43:25.110Z,502.00
2022-12-23T14:44:25.099Z,502.00
2022-12-23T14:45:25.082Z,503.00
2022-12-23T14:46:25.183Z,502.00
2022-12-23T14:47:25.079Z,502.00
2022-12-23T14:48:25.041Z,500.00
2022-12-23T14:49:41.232Z,498.00
2022-12-23T14:50:25.025Z,498.00
2022-12-23T14:51:25.040Z,501.00
2022-12-23T14:52:24.995Z,499.00
2022-12-23T14:53:24.982Z,497.00
2022-12-23T14:54:24.969Z,496.00
2022-12-23T14:55:32.956Z,497.00
2022-12-23T14:56:24.947Z,496.00
2022-12-23T14:57:24.938Z,494.00
2022-12-23T14:58:24.929Z,493.00
2022-12-23T14:59:24.918Z,494.00
2022-12-23T15:00:24.913Z,494.00
2022-12-23T15:01:24.920Z,493.00
2022-12-23T15:02:25.012Z,495.00
2022-12-23T15:03:24.998Z,496.00
2022-12-23T15:04:24.854Z,497.00
2022-12-23T15:05:24.841Z,498.00
2022-12-23T15:06:24.832Z,500.00
2022-12-23T15:07:24.815Z,496.00
2022-12-23T15:08:24.861Z,497.00
2022-12-23T15:09:24.915Z,498.00
2022-12-23T15:10:24.783Z,498.00
2022-12-23T15:11:24.767Z,499.00
2022-12-23T15:12:24.755Z,495.00
2022-12-23T15:13:24.738Z,493.00
2022-12-23T15:14:24.728Z,493.00
2022-12-23T15:15:24.701Z,491.00
2022-12-23T15:16:24.727Z,492.00
2022-12-23T15:17:24.680Z,495.00
2022-12-23T15:18:24.659Z,494.00
2022-12-23T15:19:24.688Z,493.00
2022-12-23T15:20:24.628Z,495.00
2022-12-23T15:21:24.613Z,494.00
2022-12-23T15:22:32.090Z,495.00
2022-12-23T15:23:24.615Z,496.00
2022-12-23T15:24:24.569Z,496.00
2022-12-23T15:25:24.579Z,498.00
2022-12-23T15:26:24.545Z,498.00
2022-12-23T15:27:27.640Z,497.00
2022-12-23T15:28:24.518Z,498.00
2022-12-23T15:29:24.493Z,498.00
2022-12-23T15:30:24.483Z,501.00
2022-12-23T15:31:24.559Z,500.00
2022-12-23T15:32:24.466Z,499.00
2022-12-23T15:34:24.435Z,496.00
2022-12-23T15:35:24.453Z,495.00
2022-12-23T15:36:24.491Z,495.00
2022-12-23T15:37:24.381Z,494.00
2022-12-23T15:38:24.370Z,493.00
2022-12-23T15:39:24.355Z,493.00
2022-12-23T15:40:24.342Z,495.00
2022-12-23T15:41:24.321Z,494.00
2022-12-23T15:42:24.367Z,491.00
2022-12-23T15:43:24.304Z,493.00
2022-12-23T15:44:24.279Z,493.00
2022-12-23T15:45:24.278Z,492.00
2022-12-23T15:46:29.881Z,492.00
2022-12-23T15:47:24.282Z,493.00
2022-12-23T15:48:24.238Z,493.00
2022-12-23T15:49:24.248Z,495.00
2022-12-23T15:50:24.214Z,497.00
2022-12-23T15:51:57.762Z,496.00
2022-12-23T15:52:24.183Z,495.00
2022-12-23T15:53:24.189Z,496.00
2022-12-23T15:54:24.170Z,496.00
2022-12-23T15:55:24.135Z,496.00
2022-12-23T15:56:24.120Z,492.00
2022-12-23T15:57:24.094Z,492.00
2022-12-23T15:58:24.079Z,492.00
2022-12-23T15:59:24.072Z,491.00
2022-12-23T16:00:24.059Z,492.00
2022-12-23T16:01:24.106Z,493.00
2022-12-23T16:02:58.873Z,493.00
2022-12-23T16:03:24.188Z,493.00
2022-12-23T16:04:24.052Z,495.00
2022-12-23T16:05:23.973Z,494.00
2022-12-23T16:06:23.948Z,493.00
2022-12-23T16:07:23.951Z,493.00
2022-12-23T16:08:29.231Z,492.00
2022-12-23T16:09:23.893Z,491.00
2022-12-23T16:10:23.890Z,496.00
2022-12-23T16:11:23.865Z,495.00
2022-12-23T16:12:23.872Z,496.00
2022-12-23T16:13:23.848Z,498.00
2022-12-23T16:14:23.834Z,500.00
2022-12-23T16:15:23.820Z,500.00
2022-12-23T16:16:23.873Z,500.00
2022-12-23T16:17:23.849Z,501.00
2022-12-23T16:18:23.795Z,501.00
2022-12-23T16:19:24.692Z,498.00
2022-12-23T16:20:23.775Z,497.00
2022-12-23T16:21:23.752Z,497.00
2022-12-23T16:22:23.781Z,498.00
2022-12-23T16:23:23.779Z,499.00
2022-12-23T16:24:23.717Z,499.00
2022-12-23T16:25:23.708Z,501.00
2022-12-23T16:26:23.698Z,503.00
2022-12-23T16:27:23.695Z,504.00
2022-12-23T16:28:23.671Z,500.00
2022-12-23T16:29:23.665Z,500.00
2022-12-23T16:30:23.660Z,502.00
2022-12-23T16:31:23.679Z,501.00
2022-12-23T16:32:23.708Z,498.00
2022-12-23T16:33:23.606Z,494.00
2022-12-23T16:34:23.591Z,494.00
2022-12-23T16:35:23.571Z,492.00
2022-12-23T16:36:23.734Z,493.00
2022-12-23T16:37:23.547Z,492.00
2022-12-23T16:38:23.547Z,495.00
2022-12-23T16:39:23.539Z,497.00
2022-12-23T16:40:23.505Z,499.00
2022-12-23T23:58:18.059Z,489.00
2022-12-23T23:59:18.052Z,486.00
